Data for 11/26/2008

Time Sea-Level Adjusted Pressure Absolute Pressure Temperature Relative Humidity Dew Point   
(mb) (inHg) (mb) (inHg) (C) (F) (%) (C) (F)
00:05 1019 30.09 849 25.07 -0.5 31.1 49 -10.1 13.9
00:10 1019 30.09 849 25.07 -0.7 30.8 49 -10.1 13.9
00:15 1019 30.09 848 25.04 -0.7 30.7 49 -10.2 13.6
00:20 1019 30.09 848 25.04 -0.5 31.1 47 -10.4 13.4
00:25 1019 30.09 848 25.04 -0.2 31.6 46 -10.4 13.2
00:30 1019 30.09 848 25.04 0 32.1 46 -10.2 13.7
00:35 1019 30.09 848 25.04 -0 31.9 46 -10.4 13.3
00:40 1019 30.09 848 25.04 0.2 32.3 46 -10.2 13.6
00:45 1019 30.09 848 25.04 -0.1 31.8 47 -10.3 13.5
00:50 1019 30.09 848 25.04 -0 32 46 -10.3 13.4
00:55 1019 30.09 848 25.04 -0.2 31.7 48 -10 14.1
01:00 1019 30.09 848 25.04 -0.5 31 49 -9.9 14.2
01:05 1019 30.09 848 25.04 -0.7 30.7 49 -10.2 13.6
01:10 1019 30.09 848 25.04 -0.2 31.6 47 -10.3 13.5
01:15 1019 30.09 848 25.04 0.2 32.3 46 -10.2 13.6
01:20 1019 30.09 848 25.04 0.3 32.6 45 -10.2 13.7
01:25 1019 30.09 848 25.04 0.2 32.3 46 -10.1 13.8
01:30 1019 30.09 848 25.04 0.2 32.3 46 -10.1 13.9
01:35 1019 30.09 848 25.04 0.1 32.2 47 -10.1 13.9
01:40 1019 30.09 848 25.04 0.1 32.2 46 -10.1 13.9
01:45 1019 30.09 848 25.04 0.1 32.3 46 -10.1 13.7
01:50 1019 30.09 848 25.04 0.3 32.6 45 -10.2 13.7
01:55 1019 30.09 848 25.04 0.6 33.2 44 -10.3 13.4
02:00 1019 30.09 848 25.04 0.9 33.5 46 -9.4 15
02:05 1019 30.09 848 25.04 0.6 33.1 45 -10 13.9
02:10 1019 30.09 848 25.04 0.8 33.4 45 -9.9 14.2
02:15 1019 30.09 848 25.04 1.3 34.3 44 -9.7 14.5
02:20 1019 30.09 848 25.04 0.9 33.6 45 -9.9 14.2
02:25 1019 30.09 848 25.04 1 33.8 45 -9.8 14.4
02:30 1019 30.09 848 25.04 0.7 33.3 46 -9.5 14.8
02:35 1019 30.09 848 25.04 0.2 32.4 48 -9.6 14.7
02:40 1019 30.09 848 25.04 0.1 32.2 47 -9.8 14.3
02:45 1019 30.09 848 25.04 0.2 32.4 48 -9.6 14.7
02:50 1019 30.09 848 25.04 -0 31.9 49 -9.6 14.7
02:55 1019 30.09 848 25.04 -0.3 31.5 49 -9.8 14.4
03:00 1019 30.09 848 25.04 -0.3 31.5 48 -10.1 13.8
03:05 1019 30.09 848 25.04 0.1 32.1 46 -10.3 13.5
03:10 1019 30.09 848 25.04 -0.2 31.7 49 -9.8 14.4
03:15 1019 30.09 848 25.04 -0.6 30.9 48 -10.2 13.6
03:20 1018 30.06 848 25.04 -0.6 30.9 48 -10.2 13.7
03:25 1018 30.06 848 25.04 -0.4 31.4 47 -10.5 13.1
03:30 1018 30.06 848 25.04 0.5 32.8 42 -10.9 12.3
03:35 1018 30.06 847 25.01 1.1 33.9 44 -9.9 14.2
03:40 1018 30.06 847 25.01 0.7 33.3 45 -9.8 14.4
03:45 1018 30.06 847 25.01 0.2 32.4 47 -9.8 14.4
03:50 1018 30.06 847 25.01 0.1 32.2 49 -9.5 14.9
03:55 1018 30.06 847 25.01 -0.2 31.7 50 -9.4 15.1
04:00 1018 30.06 847 25.01 -0.4 31.3 50 -9.6 14.8
04:05 1018 30.06 847 25.01 -0.2 31.7 48 -9.8 14.4
04:10 1018 30.06 848 25.04 0 32 47 -9.9 14.2
04:15 1018 30.06 848 25.04 0 32.1 48 -9.6 14.7
04:20 1018 30.06 848 25.04 0.5 33 45 -10 14.1
04:25 1018 30.06 848 25.04 0.7 33.2 44 -10.1 13.8
04:30 1018 30.06 848 25.04 0.9 33.6 44 -10 14
04:35 1019 30.09 848 25.04 1 33.9 43 -10.1 13.9
04:40 1018 30.06 848 25.04 1.1 33.9 44 -10 14.1
04:45 1018 30.06 848 25.04 0.9 33.6 46 -9.6 14.7
04:50 1018 30.06 847 25.01 0.2 32.4 48 -9.4 15
04:55 1018 30.06 847 25.01 -0.3 31.5 51 -9.3 15.2
05:00 1018 30.06 847 25.01 -0.1 31.9 46 -10.4 13.2
05:05 1018 30.06 847 25.01 1.1 34.1 43 -10 14.1
05:10 1018 30.06 847 25.01 1.1 33.9 44 -10 14.1
05:15 1018 30.06 847 25.01 1.3 34.3 42 -10.3 13.5
05:20 1018 30.06 847 25.01 1.3 34.4 44 -9.7 14.6
05:25 1018 30.06 847 25.01 1.2 34.2 45 -9.4 15.1
05:30 1018 30.06 847 25.01 0.6 33.1 51 -8.4 16.9
05:35 1018 30.06 847 25.01 -0.7 30.7 55 -8.8 16.2
05:40 1018 30.06 847 25.01 -0.5 31.2 49 -9.8 14.3
05:45 1018 30.06 847 25.01 0.3 32.5 47 -9.6 14.7
05:50 1018 30.06 847 25.01 0.6 33.1 48 -9.1 15.5
05:55 1018 30.06 847 25.01 1 33.8 48 -8.9 16
06:00 1018 30.06 847 25.01 1.1 34 47 -9 15.9
06:05 1018 30.06 847 25.01 1.4 34.4 46 -9 15.8
06:10 1018 30.06 847 25.01 1.6 35 45 -9 15.8
06:15 1018 30.06 847 25.01 1.7 35.1 45 -9.1 15.6
06:20 1018 30.06 847 25.01 1.7 35.1 46 -8.8 16.2
06:25 1018 30.06 847 25.01 1.7 35.1 45 -8.9 16
06:30 1018 30.06 848 25.04 1.7 35.1 46 -8.9 16.1
06:35 1018 30.06 848 25.04 1.6 34.8 48 -8.4 16.9
06:40 1018 30.06 848 25.04 1.1 34.1 51 -7.9 17.8
06:45 1018 30.06 848 25.04 0.6 33.1 53 -8 17.7
06:50 1018 30.06 848 25.04 0.2 32.4 54 -8 17.5
06:55 1018 30.06 847 25.01 0.1 32.3 54 -8.2 17.2
07:00 1018 30.06 847 25.01 0.1 32.2 53 -8.4 16.9
07:05 1018 30.06 847 25.01 0.2 32.4 51 -8.8 16.1
07:10 1018 30.06 847 25.01 0.7 33.3 48 -9 15.7
07:15 1018 30.06 847 25.01 1 33.7 46 -9.3 15.3
07:20 1018 30.06 847 25.01 1.5 34.7 45 -9.2 15.4
07:25 1018 30.06 847 25.01 1.5 34.7 47 -8.7 16.4
07:30 1018 30.06 847 25.01 1.1 33.9 50 -8.1 17.4
07:35 1018 30.06 848 25.04 0.6 33.1 52 -8 17.6
07:40 1018 30.06 848 25.04 0 32 54 -8.3 17.1
07:45 1018 30.06 848 25.04 0.1 32.1 54 -8.2 17.2
07:50 1018 30.06 848 25.04 0.3 32.6 54 -8 17.5
07:55 1018 30.06 848 25.04 0.3 32.5 53 -8.1 17.4
08:00 1018 30.06 848 25.04 0.1 32.2 54 -8.1 17.5
08:05 1018 30.06 848 25.04 0.1 32.2 53 -8.3 17
08:10 1018 30.06 848 25.04 0.5 32.9 53 -7.9 17.7
08:15 1018 30.06 848 25.04 0.4 32.8 52 -8.3 17
08:20 1018 30.06 848 25.04 0.7 33.3 50 -8.5 16.8
08:25 1018 30.06 848 25.04 1 33.7 48 -8.7 16.3
08:30 1018 30.06 848 25.04 1.2 34.1 48 -8.6 16.5
08:35 1018 30.06 848 25.04 1.1 34.1 48 -8.6 16.5
08:40 1019 30.09 848 25.04 1.4 34.5 50 -8 17.6
08:45 1019 30.09 848 25.04 1.6 34.9 52 -7.2 19
08:50 1019 30.09 848 25.04 1.4 34.5 53 -7.2 19.1
08:55 1019 30.09 849 25.07 1.2 34.1 56 -6.6 20.1
09:00 1019 30.09 849 25.07 0.9 33.6 57 -6.8 19.8
09:05 1019 30.09 849 25.07 0.8 33.4 59 -6.4 20.4
09:10 1020 30.12 849 25.07 0.6 33.1 60 -6.4 20.5
09:15 1020 30.12 849 25.07 0.1 32.2 66 -5.5 22.1
09:20 1020 30.12 849 25.07 -0.7 30.7 69 -5.7 21.8
09:25 1020 30.12 849 25.07 -0.7 30.7 69 -5.7 21.7
09:30 1020 30.12 849 25.07 -0.5 31.1 69 -5.5 22
09:35 1020 30.12 849 25.07 -0.3 31.4 69 -5.4 22.3
09:40 1020 30.12 849 25.07 0.1 32.2 61 -6.5 20.3
09:45 1020 30.12 849 25.07 1 33.8 54 -7.2 19
09:50 1020 30.12 849 25.07 1.7 35 49 -7.8 17.9
09:55 1020 30.12 849 25.07 2 35.6 52 -6.9 19.6
10:00 1020 30.12 849 25.07 2.3 36.2 51 -6.9 19.6
10:05 1020 30.12 849 25.07 2.5 36.6 46 -7.9 17.8
10:10 1020 30.12 849 25.07 2.8 37 46 -7.6 18.3
10:15 1020 30.12 849 25.07 3.1 37.6 47 -7.2 19
10:20 1020 30.12 849 25.07 3.2 37.7 46 -7.4 18.6
10:25 1020 30.12 849 25.07 3.1 37.6 46 -7.3 18.8
10:30 1020 30.12 849 25.07 3.1 37.7 47 -7.1 19.2
10:35 1020 30.12 849 25.07 3.1 37.5 49 -6.6 20.2
10:40 1020 30.12 849 25.07 3.1 37.5 45 -7.6 18.3
10:45 1020 30.12 849 25.07 3.4 38.2 45 -7.3 18.8
10:50 1020 30.12 849 25.07 3.7 38.6 44 -7.5 18.5
10:55 1020 30.12 849 25.07 4.3 39.7 42 -7.6 18.2
11:00 1020 30.12 849 25.07 5 41.1 39 -7.9 17.8
11:05 1020 30.12 849 25.07 5.4 41.7 38 -7.9 17.7
11:10 1020 30.12 849 25.07 5.5 41.9 38 -7.7 18.2
11:15 1020 30.12 849 25.07 5.7 42.3 38 -7.5 18.6
11:20 1020 30.12 849 25.07 5.8 42.4 39 -7.2 19.1
11:25 1020 30.12 849 25.07 5.8 42.4 39 -7.3 18.9
11:30 1020 30.12 849 25.07 5.9 42.5 38 -7.4 18.6
11:35 1020 30.12 849 25.07 5.5 41.9 38 -7.7 18.1
11:40 1020 30.12 849 25.07 5.3 41.6 39 -7.6 18.3
11:45 1020 30.12 849 25.07 5.5 41.9 39 -7.3 18.9
11:50 1020 30.12 849 25.07 5.8 42.5 39 -7 19.3
11:55 1020 30.12 849 25.07 5.6 42.1 41 -6.7 20
12:00 1020 30.12 849 25.07 5.1 41.2 42 -6.7 20
12:05 1020 30.12 849 25.07 5.4 41.7 41 -6.9 19.6
12:10 1020 30.12 849 25.07 5.4 41.6 41 -6.7 19.9
12:15 1020 30.12 849 25.07 5.5 41.9 41 -6.7 20
12:20 1020 30.12 849 25.07 6.1 43 40 -6.5 20.4
12:25 1020 30.12 849 25.07 6.2 43.1 39 -6.7 19.9
12:30 1020 30.12 849 25.07 6.2 43.2 39 -6.9 19.6
12:35 1020 30.12 849 25.07 6.5 43.8 38 -6.8 19.8
12:40 1020 30.12 849 25.07 6.8 44.3 39 -6.2 20.8
12:45 1020 30.12 849 25.07 7.1 44.8 38 -6.1 21
12:50 1020 30.12 849 25.07 7.4 45.3 37 -6.5 20.3
12:55 1020 30.12 849 25.07 7.4 45.3 38 -5.9 21.4
13:00 1020 30.12 849 25.07 7.7 45.8 36 -6.6 20.1
13:05 1020 30.12 849 25.07 7.6 45.7 38 -5.9 21.4
13:10 1020 30.12 850 25.1 7.6 45.7 38 -5.7 21.7
13:15 1020 30.12 850 25.1 7.6 45.7 39 -5.6 21.9
13:20 1020 30.12 850 25.1 7.9 46.1 38 -5.5 22
13:25 1020 30.12 850 25.1 7.8 46 39 -5.2 22.6
13:30 1020 30.12 850 25.1 8 46.4 40 -4.8 23.4
13:35 1020 30.12 850 25.1 7.7 45.8 41 -4.8 23.4
13:40 1020 30.12 850 25.1 7.7 45.9 41 -4.6 23.7
13:45 1020 30.12 850 25.1 7.6 45.8 43 -4.1 24.7
13:50 1020 30.12 850 25.1 6.5 43.7 46 -4.2 24.4
13:55 1020 30.12 850 25.1 6.1 43 47 -4.5 23.9
14:00 1020 30.12 850 25.1 6.1 43 45 -4.9 23.2
14:05 1020 30.12 850 25.1 6.6 43.9 44 -4.9 23.3
14:10 1020 30.12 850 25.1 7.1 44.7 43 -4.6 23.7
14:15 1020 30.12 850 25.1 7.4 45.4 42 -4.6 23.8
14:20 1020 30.12 850 25.1 7.7 45.8 41 -4.6 23.7
14:25 1021 30.15 850 25.1 7.9 46.2 41 -4.5 23.9
14:30 1021 30.15 850 25.1 7.6 45.7 43 -4.3 24.3
14:35 1021 30.15 850 25.1 7.6 45.6 43 -4.3 24.3
14:40 1021 30.15 850 25.1 7.5 45.5 44 -4.1 24.6
14:45 1021 30.15 850 25.1 7.7 45.9 43 -4.1 24.5
14:50 1021 30.15 850 25.1 7.5 45.5 44 -4 24.9
14:55 1021 30.15 850 25.1 7.5 45.6 43 -4.2 24.5
15:00 1021 30.15 850 25.1 7.7 45.8 44 -3.7 25.4
15:05 1021 30.15 850 25.1 7.3 45.2 46 -3.6 25.6
15:10 1021 30.15 850 25.1 7.3 45.1 45 -3.8 25.1
15:15 1021 30.15 850 25.1 7.2 45 46 -3.7 25.4
15:20 1021 30.15 850 25.1 7.2 44.9 46 -3.6 25.5
15:25 1021 30.15 850 25.1 7 44.6 47 -3.7 25.4
15:30 1021 30.15 850 25.1 7.2 45 46 -3.7 25.4
15:35 1021 30.15 850 25.1 7.2 45 46 -3.5 25.7
15:40 1021 30.15 850 25.1 7.1 44.7 47 -3.5 25.7
15:45 1021 30.15 850 25.1 6.9 44.4 47 -3.5 25.7
15:50 1021 30.15 850 25.1 6.8 44.2 48 -3.4 25.9
15:55 1021 30.15 851 25.13 6.5 43.7 50 -3.2 26.2
16:00 1022 30.18 851 25.13 6.5 43.7 50 -3.2 26.3
16:05 1022 30.18 851 25.13 6.4 43.6 50 -3.2 26.2
16:10 1022 30.18 851 25.13 6.2 43.2 50 -3.4 25.9
16:15 1022 30.18 851 25.13 6.1 43 50 -3.5 25.6
16:20 1022 30.18 851 25.13 6.1 42.9 51 -3.4 25.9
16:25 1022 30.18 851 25.13 5.9 42.6 51 -3.4 25.8
16:30 1022 30.18 851 25.13 5.6 42 53 -3.3 26.1
16:35 1022 30.18 851 25.13 5.2 41.4 54 -3.4 26
16:40 1022 30.18 851 25.13 4.9 40.8 55 -3.3 26.1
16:45 1022 30.18 851 25.13 4.6 40.3 56 -3.3 26
16:50 1022 30.18 851 25.13 4.4 39.9 57 -3.5 25.7
16:55 1022 30.18 851 25.13 4.2 39.5 57 -3.5 25.7
17:00 1022 30.18 851 25.13 4 39.2 57 -3.8 25.2
17:05 1022 30.18 851 25.13 3.8 38.9 56 -4.1 24.5
17:10 1022 30.18 851 25.13 3.6 38.6 55 -4.6 23.7
17:15 1022 30.18 851 25.13 3.4 38.2 59 -3.9 25
17:20 1022 30.18 852 25.16 2.9 37.2 59 -4.3 24.3
17:25 1022 30.18 852 25.16 2.8 37.1 61 -4.1 24.7
17:30 1022 30.18 852 25.16 2.3 36.2 61 -4.5 23.9
17:35 1022 30.18 852 25.16 2.4 36.3 61 -4.3 24.3
17:40 1023 30.21 852 25.16 1.9 35.3 64 -4.2 24.4
17:45 1023 30.21 852 25.16 1.4 34.4 66 -4.4 24.2
17:50 1023 30.21 852 25.16 1.3 34.3 65 -4.5 24
17:55 1023 30.21 852 25.16 1.3 34.4 67 -4.2 24.5
18:00 1023 30.21 852 25.16 0.9 33.7 69 -4.2 24.5
18:05 1023 30.21 852 25.16 1 33.7 69 -4.1 24.6
18:10 1023 30.21 852 25.16 0.4 32.7 70 -4.4 24.1
18:15 1023 30.21 852 25.16 0.2 32.4 71 -4.4 24
18:20 1023 30.21 852 25.16 -0.1 31.8 73 -4.4 24.1
18:25 1023 30.21 852 25.16 0.2 32.3 70 -4.7 23.6
18:30 1023 30.21 852 25.16 0.3 32.6 71 -4.4 24.2
18:35 1023 30.21 852 25.16 0.2 32.4 71 -4.5 23.9
18:40 1023 30.21 852 25.16 0.3 32.5 70 -4.5 23.9
18:45 1023 30.21 852 25.16 0.7 33.2 67 -4.9 23.3
18:50 1023 30.21 852 25.16 1.2 34.1 65 -4.7 23.6
18:55 1023 30.21 852 25.16 1.3 34.3 62 -5.1 22.8
19:00 1023 30.21 852 25.16 1.4 34.4 62 -5.1 22.8
19:05 1023 30.21 852 25.16 1.3 34.4 60 -5.5 22.1
19:10 1023 30.21 852 25.16 1.2 34.2 61 -5.5 22.2
19:15 1023 30.21 852 25.16 1.1 34 61 -5.6 22
19:20 1023 30.21 852 25.16 1 33.7 63 -5.4 22.3
19:25 1023 30.21 852 25.16 0.8 33.5 63 -5.4 22.2
19:30 1023 30.21 853 25.19 0.9 33.6 63 -5.5 22.2
19:35 1023 30.21 853 25.19 0.9 33.6 63 -5.5 22.2
19:40 1023 30.21 852 25.16 0.8 33.5 62 -5.6 22
19:45 1023 30.21 852 25.16 0.8 33.4 62 -5.8 21.6
19:50 1023 30.21 852 25.16 0.8 33.5 62 -5.7 21.8
19:55 1023 30.21 852 25.16 0.8 33.4 61 -6 21.3
20:00 1023 30.21 852 25.16 0.9 33.6 60 -6 21.1
20:05 1023 30.21 852 25.16 0.9 33.6 60 -6 21.2
20:10 1023 30.21 852 25.16 0.8 33.4 61 -5.9 21.4
20:15 1023 30.21 852 25.16 0.6 33.1 62 -5.9 21.4
20:20 1023 30.21 852 25.16 0.5 32.9 62 -6 21.2
20:25 1023 30.21 852 25.16 0.4 32.7 63 -5.9 21.4
20:30 1023 30.21 852 25.16 0.2 32.4 63 -6 21.2
20:35 1023 30.21 852 25.16 0.2 32.3 63 -6.1 21
20:40 1023 30.21 852 25.16 0.1 32.2 63 -6.1 21
20:45 1023 30.21 852 25.16 0 32 64 -6.1 21.1
20:50 1023 30.21 852 25.16 -0.1 31.8 65 -6 21.2
20:55 1023 30.21 852 25.16 -0.2 31.6 65 -6.1 21.1
21:00 1023 30.21 852 25.16 -0.3 31.4 65 -6.1 21
21:05 1023 30.21 852 25.16 -0.4 31.3 65 -6.1 21
21:10 1023 30.21 852 25.16 -0.4 31.2 65 -6.2 20.8
21:15 1023 30.21 852 25.16 -0.4 31.2 65 -6.2 20.9
21:20 1023 30.21 852 25.16 -0.5 31.1 65 -6.2 20.8
21:25 1023 30.21 852 25.16 -0.6 31 66 -6.2 20.8
21:30 1023 30.21 852 25.16 -0.6 30.9 65 -6.3 20.6
21:35 1023 30.21 852 25.16 -0.6 30.9 65 -6.4 20.4
21:40 1023 30.21 852 25.16 -0.6 30.9 65 -6.4 20.5
21:45 1023 30.21 852 25.16 -0.6 30.9 65 -6.4 20.6
21:50 1023 30.21 852 25.16 -0.7 30.7 66 -6.3 20.6
21:55 1023 30.21 852 25.16 -0.9 30.4 66 -6.4 20.6
22:00 1023 30.21 852 25.16 -0.9 30.3 67 -6.3 20.6
22:05 1023 30.21 852 25.16 -1.1 30 67 -6.4 20.5
22:10 1023 30.21 852 25.16 -1.2 29.9 68 -6.4 20.5
22:15 1023 30.21 852 25.16 -1.3 29.7 68 -6.5 20.3
22:20 1023 30.21 852 25.16 -1.4 29.5 68 -6.5 20.3
22:25 1023 30.21 852 25.16 -1.4 29.4 68 -6.5 20.2
22:30 1023 30.21 852 25.16 -1.5 29.3 69 -6.5 20.2
22:35 1023 30.21 852 25.16 -1.6 29.2 69 -6.6 20.2
22:40 1023 30.21 852 25.16 -1.6 29.1 69 -6.6 20.1
22:45 1023 30.21 852 25.16 -1.7 29 69 -6.7 20
22:50 1023 30.21 852 25.16 -1.8 28.8 70 -6.6 20.1
22:55 1023 30.21 852 25.16 -1.9 28.6 70 -6.8 19.8
23:00 1023 30.21 852 25.16 -2 28.5 70 -6.8 19.8
23:05 1023 30.21 852 25.16 -2 28.4 70 -6.8 19.8
23:10 1023 30.21 852 25.16 -2 28.4 70 -6.7 19.9
23:15 1023 30.21 852 25.16 -2 28.3 71 -6.6 20
23:20 1023 30.21 852 25.16 -2.1 28.2 71 -6.7 20
23:25 1023 30.21 852 25.16 -2 28.5 71 -6.6 20.1
23:30 1023 30.21 852 25.16 -1.9 28.6 71 -6.5 20.3
23:35 1023 30.21 852 25.16 -1.9 28.5 71 -6.5 20.3
23:40 1023 30.21 852 25.16 -2 28.4 71 -6.7 20
23:45 1023 30.21 852 25.16 -2.1 28.3 72 -6.5 20.2
23:50 1023 30.21 852 25.16 -2.1 28.2 72 -6.6 20.1
23:55 1023 30.21 852 25.16 -2.2 28 72 -6.7 20
24:00 1023 30.21 852 25.16 -2.2 28.1 71 -6.7 20